Time;durP1;ratioP1;P1;durP2;ratioP2;P2;SDS_P1;SDS_P2;PMS_P1;PMS_P2;Temp;Humidity;BMP_temperature;BMP_pressure;BME280_temperature;BME280_humidity;BME280_pressure;Samples;Min_cycle;Max_cycle;Signal;HPM_P1;HPM_P2
2021/05/26 00:02:03;;;;;;;1.70;1.48;;;;;15.60;101064.00;;;;5070456;28;20256;-78
2021/05/26 00:04:30;;;;;;;3.67;1.67;;;;;15.60;101057.00;;;;5071710;28;20199;-78
2021/05/26 00:06:57;;;;;;;4.28;1.70;;;;;15.60;101071.00;;;;5070890;28;20187;-78
2021/05/26 00:09:23;;;;;;;2.17;1.50;;;;;15.60;101066.00;;;;5071940;28;20223;-78
2021/05/26 00:11:50;;;;;;;2.17;1.52;;;;;15.60;101061.00;;;;5071211;28;20207;-78
2021/05/26 00:14:17;;;;;;;2.97;1.40;;;;;15.60;101065.00;;;;5073197;28;20195;-78
2021/05/26 00:16:44;;;;;;;2.33;1.10;;;;;15.60;101067.00;;;;5070778;28;20198;-78
2021/05/26 00:19:12;;;;;;;2.75;1.05;;;;;15.60;101063.00;;;;5073928;28;20646;-78
2021/05/26 00:21:39;;;;;;;1.58;1.00;;;;;15.60;101067.00;;;;5070838;28;20207;-78
2021/05/26 00:24:07;;;;;;;1.25;0.80;;;;;15.60;101066.00;;;;5070957;28;20191;-78
2021/05/26 00:26:33;;;;;;;2.92;1.10;;;;;15.60;101063.00;;;;5071891;28;20206;-78
2021/05/26 00:29:00;;;;;;;2.55;0.90;;;;;15.60;101059.00;;;;5072889;28;20203;-78
2021/05/26 00:31:27;;;;;;;1.77;0.70;;;;;15.60;101051.00;;;;5076534;28;20259;-79
2021/05/26 00:33:55;;;;;;;1.08;0.75;;;;;15.60;101060.00;;;;5090866;28;20227;-79
2021/05/26 00:36:21;;;;;;;2.58;1.00;;;;;15.60;101064.00;;;;5090768;28;20199;-79
2021/05/26 00:38:49;;;;;;;1.63;0.70;;;;;15.60;101054.00;;;;5071994;28;20225;-78
2021/05/26 00:41:16;;;;;;;2.30;0.80;;;;;15.60;101052.00;;;;5070134;28;20286;-78
2021/05/26 00:43:42;;;;;;;2.05;0.80;;;;;15.60;101052.00;;;;5088176;28;20210;-78
2021/05/26 00:46:09;;;;;;;1.67;0.88;;;;;15.60;101037.00;;;;5090276;28;20210;-78
2021/05/26 00:48:36;;;;;;;1.05;0.82;;;;;15.60;101026.00;;;;5089717;28;20198;-78
2021/05/26 00:51:04;;;;;;;1.30;0.70;;;;;15.60;101033.00;;;;5075294;28;20202;-79
2021/05/26 00:53:32;;;;;;;2.78;0.80;;;;;15.50;101043.00;;;;5069476;28;20248;-79
2021/05/26 00:55:59;;;;;;;1.10;0.70;;;;;15.60;101035.00;;;;5069077;28;20199;-79
2021/05/26 00:58:26;;;;;;;0.85;0.73;;;;;15.50;101034.00;;;;5069982;28;20547;-78
2021/05/26 01:00:55;;;;;;;2.80;1.10;;;;;15.50;101026.00;;;;5089164;28;20208;-79
2021/05/26 01:03:22;;;;;;;1.05;0.80;;;;;15.50;101038.00;;;;5089926;28;20209;-78
2021/05/26 01:05:49;;;;;;;0.90;0.65;;;;;15.50;101027.00;;;;5079123;28;20548;-78
2021/05/26 01:08:17;;;;;;;1.00;0.80;;;;;15.50;101028.00;;;;5069570;28;20187;-78
2021/05/26 01:10:44;;;;;;;2.28;1.05;;;;;15.50;101023.00;;;;5076114;28;20209;-78
2021/05/26 01:13:11;;;;;;;1.55;0.70;;;;;15.50;101021.00;;;;5084836;28;20218;-78
2021/05/26 01:15:38;;;;;;;1.63;0.68;;;;;15.50;101029.00;;;;5089620;28;20202;-78
2021/05/26 01:18:18;;;;;;;1.38;0.60;;;;;15.40;101029.00;;;;5069046;28;20344;-78
2021/05/26 01:20:46;;;;;;;1.10;0.65;;;;;15.50;101021.00;;;;5070215;28;20229;-78
2021/05/26 01:23:17;;;;;;;0.65;0.47;;;;;15.50;101031.00;;;;5075681;28;20236;-78
2021/05/26 01:25:45;;;;;;;2.20;0.60;;;;;15.40;101020.00;;;;5089865;28;20289;-78
2021/05/26 01:28:13;;;;;;;1.00;0.52;;;;;15.40;101023.00;;;;5090110;28;20571;-78
2021/05/26 01:30:39;;;;;;;1.15;0.50;;;;;15.40;101030.00;;;;5089723;28;20222;-78
2021/05/26 01:33:07;;;;;;;0.80;0.40;;;;;15.40;101032.00;;;;5073328;28;20672;-78
2021/05/26 01:35:33;;;;;;;0.90;0.60;;;;;15.40;101034.00;;;;5078292;28;20225;-78
2021/05/26 01:38:00;;;;;;;0.95;0.60;;;;;15.40;101027.00;;;;5079562;28;20279;-78
2021/05/26 01:40:28;;;;;;;0.30;0.30;;;;;15.40;101027.00;;;;5085096;28;20198;-78
2021/05/26 01:42:54;;;;;;;0.98;0.50;;;;;15.40;101001.00;;;;5069502;28;20688;-77
2021/05/26 01:45:21;;;;;;;0.43;0.30;;;;;15.40;101001.00;;;;5068674;28;20525;-78
2021/05/26 01:47:50;;;;;;;0.60;0.40;;;;;15.30;101003.00;;;;5070009;28;20198;-78
2021/05/26 01:50:21;;;;;;;0.38;0.28;;;;;15.30;100995.00;;;;5069387;28;20207;-78
2021/05/26 01:52:50;;;;;;;1.02;0.40;;;;;15.30;101001.00;;;;5085940;28;20639;-79
2021/05/26 01:55:17;;;;;;;0.40;0.40;;;;;15.30;101012.00;;;;5080838;28;20195;-78
2021/05/26 01:57:45;;;;;;;0.60;0.40;;;;;15.30;101019.00;;;;5069445;28;20220;-78
2021/05/26 02:00:14;;;;;;;1.52;0.40;;;;;15.30;101016.00;;;;5068876;28;20268;-78
2021/05/26 02:02:41;;;;;;;0.80;0.40;;;;;15.40;101013.00;;;;5069013;28;20727;-78
2021/05/26 02:05:09;;;;;;;1.40;0.57;;;;;15.30;100998.00;;;;5068224;28;20209;-77
2021/05/26 02:07:37;;;;;;;0.57;0.43;;;;;15.30;100994.00;;;;5069442;28;20194;-77
2021/05/26 02:10:05;;;;;;;0.82;0.45;;;;;15.30;100993.00;;;;5070554;28;20218;-78
2021/05/26 02:12:34;;;;;;;1.83;0.30;;;;;15.40;100996.00;;;;5076394;28;20206;-78
2021/05/26 02:15:03;;;;;;;0.85;0.30;;;;;15.30;101007.00;;;;5072872;28;20222;-78
2021/05/26 02:17:30;;;;;;;0.60;0.30;;;;;15.40;100997.00;;;;5068688;28;20207;-78
2021/05/26 02:19:57;;;;;;;0.80;0.40;;;;;15.40;100999.00;;;;5068838;28;20227;-78
2021/05/26 02:22:24;;;;;;;0.70;0.68;;;;;15.40;100991.00;;;;5068490;28;20209;-78
2021/05/26 02:24:50;;;;;;;0.45;0.40;;;;;15.40;100985.00;;;;5069189;28;20195;-79
2021/05/26 02:27:17;;;;;;;1.05;0.50;;;;;15.40;100987.00;;;;5069022;28;20661;-79
2021/05/26 02:29:44;;;;;;;0.63;0.38;;;;;15.40;100979.00;;;;5068198;28;20210;-78
2021/05/26 02:32:12;;;;;;;1.30;0.57;;;;;15.40;100978.00;;;;5068777;28;20671;-78
2021/05/26 02:34:39;;;;;;;1.08;0.85;;;;;15.50;100973.00;;;;5068569;28;20749;-78
2021/05/26 02:37:07;;;;;;;0.40;0.32;;;;;15.50;100979.00;;;;5068710;28;20253;-78
2021/05/26 02:39:34;;;;;;;1.10;0.55;;;;;15.50;100978.00;;;;5067915;28;20230;-79
2021/05/26 02:42:01;;;;;;;1.08;0.75;;;;;15.50;100972.00;;;;5079595;28;20194;-78
2021/05/26 02:44:28;;;;;;;1.70;0.70;;;;;15.50;100968.00;;;;5073156;28;20669;-78
2021/05/26 02:46:54;;;;;;;1.45;0.50;;;;;15.50;100971.00;;;;5068199;28;20199;-78
2021/05/26 02:49:22;;;;;;;0.88;0.50;;;;;15.50;100963.00;;;;5067534;28;20271;-78
2021/05/26 02:51:49;;;;;;;1.75;1.00;;;;;15.50;100964.00;;;;5069126;28;20202;-78
2021/05/26 02:54:15;;;;;;;1.10;0.82;;;;;15.50;100958.00;;;;5082891;28;20259;-79
2021/05/26 02:56:42;;;;;;;2.50;1.30;;;;;15.60;100956.00;;;;5089367;28;20244;-78
2021/05/26 02:59:09;;;;;;;4.10;1.83;;;;;15.60;100952.00;;;;5074973;28;20230;-77
2021/05/26 03:01:36;;;;;;;2.97;2.03;;;;;15.60;100957.00;;;;5070352;28;20740;-78
2021/05/26 03:04:03;;;;;;;3.55;1.77;;;;;15.50;100950.00;;;;5069010;28;20207;-78
2021/05/26 03:06:31;;;;;;;2.38;2.05;;;;;15.60;100956.00;;;;5071799;28;20259;-78
2021/05/26 03:08:58;;;;;;;3.05;1.95;;;;;15.60;100953.00;;;;5068565;28;20250;-78
2021/05/26 03:11:25;;;;;;;5.30;2.13;;;;;15.60;100954.00;;;;5068047;28;20207;-78
2021/05/26 03:13:52;;;;;;;2.63;1.92;;;;;15.60;100947.00;;;;5086181;28;20206;-78
2021/05/26 03:16:18;;;;;;;2.60;1.55;;;;;15.60;100945.00;;;;5078793;28;20210;-78
2021/05/26 03:18:46;;;;;;;4.55;2.15;;;;;15.60;100948.00;;;;5070806;28;20676;-78
2021/05/26 03:21:13;;;;;;;3.35;2.03;;;;;15.60;100945.00;;;;5065368;28;20245;-78
2021/05/26 03:23:42;;;;;;;2.10;1.83;;;;;15.70;100940.00;;;;5067090;28;20195;-78
2021/05/26 03:26:09;;;;;;;4.22;2.42;;;;;15.70;100950.00;;;;5065826;28;20261;-78
2021/05/26 03:28:36;;;;;;;2.90;1.98;;;;;15.70;100940.00;;;;5066556;28;20194;-78
2021/05/26 03:31:04;;;;;;;4.93;2.40;;;;;15.70;100944.00;;;;5066416;28;20219;-78
2021/05/26 03:33:30;;;;;;;2.90;2.13;;;;;15.70;100942.00;;;;5074683;28;20307;-78
2021/05/26 03:35:57;;;;;;;4.07;1.58;;;;;15.70;100935.00;;;;5087205;28;20260;-78
2021/05/26 03:38:24;;;;;;;4.55;1.88;;;;;15.70;100929.00;;;;5071983;28;20223;-78
2021/05/26 03:40:52;;;;;;;3.38;2.13;;;;;15.80;100935.00;;;;5071880;28;20198;-78
2021/05/26 03:43:18;;;;;;;3.65;1.95;;;;;15.80;100938.00;;;;5071155;28;20248;-78
2021/05/26 03:45:45;;;;;;;6.10;1.98;;;;;15.80;100928.00;;;;5071993;28;20199;-78
2021/05/26 03:48:12;;;;;;;5.70;2.20;;;;;15.80;100931.00;;;;5069913;28;20191;-78
2021/05/26 03:50:39;;;;;;;7.00;2.42;;;;;15.80;100931.00;;;;5079482;28;20209;-78
2021/05/26 03:53:08;;;;;;;3.00;1.50;;;;;15.80;100932.00;;;;5080760;28;20203;-78
2021/05/26 03:55:35;;;;;;;3.70;1.40;;;;;15.80;100934.00;;;;5069944;28;20199;-77
2021/05/26 03:58:03;;;;;;;4.90;1.95;;;;;15.80;100932.00;;;;5069369;28;20202;-78
2021/05/26 04:00:30;;;;;;;5.88;1.92;;;;;15.80;100924.00;;;;5069509;28;20195;-77
2021/05/26 04:02:57;;;;;;;4.85;2.10;;;;;15.80;100933.00;;;;5069567;28;20191;-78
2021/05/26 04:05:24;;;;;;;2.53;1.17;;;;;15.80;100938.00;;;;5069528;28;20195;-78
2021/05/26 04:07:50;;;;;;;3.90;1.45;;;;;15.80;100930.00;;;;5086243;28;20202;-78
2021/05/26 04:10:17;;;;;;;2.40;1.35;;;;;15.80;100940.00;;;;5079220;28;20280;-78
2021/05/26 04:12:44;;;;;;;4.68;1.58;;;;;15.80;100933.00;;;;5071655;28;20203;-77
2021/05/26 04:15:13;;;;;;;6.40;1.42;;;;;15.80;100938.00;;;;5070754;28;20202;-78
2021/05/26 04:17:40;;;;;;;3.42;1.40;;;;;15.80;100935.00;;;;5071451;28;20195;-78
2021/05/26 04:20:08;;;;;;;2.47;1.40;;;;;15.80;100934.00;;;;5088550;28;20473;-78
2021/05/26 04:22:35;;;;;;;3.53;1.55;;;;;15.80;100934.00;;;;5090965;28;20694;-78
2021/05/26 04:25:03;;;;;;;2.90;1.58;;;;;15.90;100936.00;;;;5071148;28;20729;-78
2021/05/26 04:27:30;;;;;;;4.13;1.50;;;;;15.90;100930.00;;;;5071248;28;20550;-78
2021/05/26 04:29:58;;;;;;;3.40;1.60;;;;;15.90;100934.00;;;;5070702;28;20215;-78
2021/05/26 04:32:26;;;;;;;3.47;2.05;;;;;15.90;100930.00;;;;5081483;28;20715;-78
2021/05/26 04:34:53;;;;;;;3.83;1.63;;;;;15.90;100925.00;;;;5090149;28;20969;-78
2021/05/26 04:37:20;;;;;;;3.13;1.58;;;;;15.90;100925.00;;;;5094551;28;20198;-78
2021/05/26 04:39:47;;;;;;;3.40;1.88;;;;;15.90;100921.00;;;;5089331;28;20225;-78
2021/05/26 04:42:14;;;;;;;2.75;1.63;;;;;16.00;100925.00;;;;5086013;28;20255;-78
2021/05/26 04:44:40;;;;;;;2.38;1.65;;;;;16.00;100919.00;;;;5090683;28;20206;-79
2021/05/26 04:47:07;;;;;;;3.17;2.30;;;;;16.00;100918.00;;;;5090206;28;20193;-78
2021/05/26 04:49:35;;;;;;;3.38;1.83;;;;;16.00;100920.00;;;;5087951;28;20549;-78
2021/05/26 04:52:01;;;;;;;3.33;2.03;;;;;16.00;100918.00;;;;5093061;28;20198;-78
2021/05/26 04:54:29;;;;;;;5.93;2.30;;;;;16.00;100931.00;;;;5098461;28;20189;-78
2021/05/26 04:56:56;;;;;;;4.82;2.17;;;;;16.00;100923.00;;;;5090651;28;20281;-78
2021/05/26 04:59:23;;;;;;;5.18;2.40;;;;;16.00;100917.00;;;;5081131;28;20274;-78
2021/05/26 05:01:50;;;;;;;2.45;1.70;;;;;16.00;100914.00;;;;5096839;28;20202;-79
2021/05/26 05:04:16;;;;;;;3.80;2.38;;;;;16.10;100917.00;;;;5088451;28;20190;-79
2021/05/26 05:06:44;;;;;;;4.53;1.83;;;;;16.00;100920.00;;;;5089602;28;20198;-78
2021/05/26 05:09:11;;;;;;;3.80;2.28;;;;;16.00;100916.00;;;;5085798;28;20222;-78
2021/05/26 05:11:38;;;;;;;3.35;2.17;;;;;16.10;100911.00;;;;5079291;28;20202;-79
2021/05/26 05:14:05;;;;;;;3.53;2.35;;;;;16.10;100913.00;;;;5087054;28;20198;-79
2021/05/26 05:16:32;;;;;;;5.38;2.85;;;;;16.10;100910.00;;;;5094640;28;20275;-79
2021/05/26 05:18:59;;;;;;;4.05;2.50;;;;;16.10;100918.00;;;;5096431;28;20241;-78
2021/05/26 05:21:26;;;;;;;4.63;2.40;;;;;16.10;100913.00;;;;5083810;28;20210;-78
2021/05/26 05:23:54;;;;;;;4.63;2.42;;;;;16.10;100906.00;;;;5077648;28;20209;-78
2021/05/26 05:26:20;;;;;;;3.05;2.38;;;;;16.20;100905.00;;;;5078356;28;20195;-78
2021/05/26 05:28:47;;;;;;;6.70;2.63;;;;;16.20;100911.00;;;;5069227;28;20248;-78
2021/05/26 05:31:14;;;;;;;5.20;2.50;;;;;16.20;100903.00;;;;5075609;28;20215;-78
2021/05/26 05:33:40;;;;;;;3.65;2.10;;;;;16.20;100912.00;;;;5070339;28;20199;-78
2021/05/26 05:36:09;;;;;;;3.28;2.38;;;;;16.20;100912.00;;;;5071828;28;20206;-78
2021/05/26 05:38:36;;;;;;;4.43;2.42;;;;;16.30;100909.00;;;;5091061;28;20236;-78
2021/05/26 05:41:04;;;;;;;4.30;2.80;;;;;16.30;100919.00;;;;5088564;28;20186;-78
2021/05/26 05:43:30;;;;;;;5.35;2.90;;;;;16.30;100919.00;;;;5080649;28;20680;-79
2021/05/26 05:45:57;;;;;;;4.45;3.25;;;;;16.40;100921.00;;;;5078174;28;20212;-79
2021/05/26 05:48:24;;;;;;;4.22;2.17;;;;;16.40;100916.00;;;;5073023;28;20257;-79
2021/05/26 05:50:51;;;;;;;6.20;3.13;;;;;16.40;100916.00;;;;5088698;28;20691;-79
2021/05/26 05:53:17;;;;;;;4.20;2.53;;;;;16.40;100916.00;;;;5087306;28;20198;-79
2021/05/26 05:55:44;;;;;;;3.55;2.40;;;;;16.50;100917.00;;;;5069075;28;20202;-78
2021/05/26 05:58:14;;;;;;;4.07;2.92;;;;;16.50;100920.00;;;;5072811;28;20191;-78
2021/05/26 06:00:40;;;;;;;4.38;2.65;;;;;16.50;100920.00;;;;5078403;28;20214;-78
2021/05/26 06:03:07;;;;;;;4.82;3.20;;;;;16.60;100920.00;;;;5069943;28;20203;-80
2021/05/26 06:05:34;;;;;;;4.90;3.65;;;;;16.60;100918.00;;;;5077199;28;20229;-82
2021/05/26 06:08:01;;;;;;;4.47;2.92;;;;;16.60;100914.00;;;;5089214;28;20679;-82
2021/05/26 06:10:27;;;;;;;2.90;2.58;;;;;16.60;100920.00;;;;5081763;28;20227;-82
2021/05/26 06:12:56;;;;;;;4.43;3.33;;;;;16.70;100919.00;;;;5068600;28;20668;-81
2021/05/26 06:15:23;;;;;;;4.20;3.40;;;;;16.70;100915.00;;;;5067654;28;20278;-82
2021/05/26 06:17:50;;;;;;;3.20;2.83;;;;;16.70;100914.00;;;;5069925;28;20668;-82
2021/05/26 06:20:17;;;;;;;7.25;3.83;;;;;16.70;100911.00;;;;5070396;28;20225;-81
2021/05/26 06:22:45;;;;;;;4.28;3.63;;;;;16.80;100910.00;;;;5068864;28;20206;-82
2021/05/26 06:25:13;;;;;;;3.95;3.13;;;;;16.80;100903.00;;;;5068608;28;20202;-82
2021/05/26 06:27:40;;;;;;;4.22;3.42;;;;;16.80;100915.00;;;;5086278;28;20199;-82
2021/05/26 06:30:07;;;;;;;4.65;3.50;;;;;16.80;100911.00;;;;5088691;28;20225;-83
2021/05/26 06:32:35;;;;;;;4.00;3.15;;;;;16.90;100907.00;;;;5079904;28;20202;-81
2021/05/26 06:35:03;;;;;;;5.72;3.60;;;;;16.90;100895.00;;;;5080164;28;20203;-83
2021/05/26 06:37:29;;;;;;;4.88;3.45;;;;;16.90;100905.00;;;;5077434;28;20195;-83
2021/05/26 06:39:56;;;;;;;5.07;3.50;;;;;17.00;100899.00;;;;5071382;28;20219;-83
2021/05/26 06:42:23;;;;;;;11.57;3.70;;;;;17.00;100899.00;;;;5076882;28;20198;-83
2021/05/26 06:44:50;;;;;;;5.13;3.72;;;;;17.00;100899.00;;;;5080953;28;20194;-83
2021/05/26 06:47:16;;;;;;;5.60;3.85;;;;;17.10;100901.00;;;;5076700;28;20664;-83
2021/05/26 06:49:44;;;;;;;4.70;4.13;;;;;17.10;100899.00;;;;5087331;28;21229;-84
2021/05/26 06:52:11;;;;;;;6.82;3.80;;;;;17.20;100900.00;;;;5084580;28;20565;-83
2021/05/26 06:54:38;;;;;;;5.28;4.05;;;;;17.20;100902.00;;;;5080124;28;20531;-83
2021/05/26 06:57:05;;;;;;;5.28;3.88;;;;;17.30;100892.00;;;;5069872;28;20229;-84
2021/05/26 06:59:31;;;;;;;5.00;3.80;;;;;17.30;100888.00;;;;5079810;28;20229;-83
2021/05/26 07:01:58;;;;;;;4.95;3.67;;;;;17.40;100901.00;;;;5073822;28;20199;-81
2021/05/26 07:04:25;;;;;;;5.45;3.30;;;;;17.40;100902.00;;;;5068160;28;20198;-84
2021/05/26 07:06:55;;;;;;;6.93;3.50;;;;;17.50;100902.00;;;;5079399;28;20200;-84
2021/05/26 07:09:21;;;;;;;8.18;3.90;;;;;17.50;100900.00;;;;5088866;28;20221;-83
2021/05/26 07:11:48;;;;;;;5.93;3.45;;;;;17.60;100908.00;;;;5082315;28;20198;-81
2021/05/26 07:14:15;;;;;;;9.27;4.35;;;;;17.60;100897.00;;;;5086819;28;20197;-82
2021/05/26 07:16:42;;;;;;;4.72;3.67;;;;;17.70;100891.00;;;;5075866;28;20263;-84
2021/05/26 07:19:08;;;;;;;4.72;4.10;;;;;17.70;100895.00;;;;5071453;28;20219;-83
2021/05/26 07:21:35;;;;;;;4.57;3.28;;;;;17.80;100900.00;;;;5072426;28;20207;-82
2021/05/26 07:24:03;;;;;;;4.65;3.20;;;;;17.80;100901.00;;;;5087968;28;20216;-80
2021/05/26 07:26:30;;;;;;;6.65;4.20;;;;;17.90;100903.00;;;;5082124;28;20586;-83
2021/05/26 07:28:57;;;;;;;3.78;2.90;;;;;17.90;100899.00;;;;5070666;28;20199;-81
2021/05/26 07:31:23;;;;;;;5.32;3.30;;;;;18.00;100894.00;;;;5071054;28;20218;-81
2021/05/26 07:33:52;;;;;;;7.55;4.25;;;;;18.00;100903.00;;;;5071771;28;20649;-79
2021/05/26 07:36:19;;;;;;;6.30;3.80;;;;;18.10;100903.00;;;;5074039;28;20285;-80
2021/05/26 07:38:46;;;;;;;3.58;2.88;;;;;18.10;100902.00;;;;5090766;28;20229;-81
2021/05/26 07:41:14;;;;;;;5.10;3.03;;;;;18.20;100894.00;;;;5079767;28;20198;-82
2021/05/26 07:43:40;;;;;;;6.93;3.42;;;;;18.30;100901.00;;;;5078473;28;20290;-82
2021/05/26 07:46:07;;;;;;;6.53;3.65;;;;;18.30;100905.00;;;;5091942;28;20187;-84
2021/05/26 07:48:35;;;;;;;4.97;3.83;;;;;18.30;100900.00;;;;5074742;28;20211;-83
2021/05/26 07:51:04;;;;;;;5.47;3.33;;;;;18.40;100903.00;;;;5075278;28;20217;-83
2021/05/26 07:53:30;;;;;;;3.50;3.03;;;;;18.40;100907.00;;;;5082873;28;20199;-83
2021/05/26 07:55:58;;;;;;;6.05;3.25;;;;;18.40;100897.00;;;;5072384;28;20191;-84
2021/05/26 07:58:25;;;;;;;4.05;3.33;;;;;18.40;100899.00;;;;5070925;28;20714;-83
2021/05/26 08:00:52;;;;;;;5.78;3.30;;;;;18.40;100901.00;;;;5078874;28;20275;-81
2021/05/26 08:03:19;;;;;;;4.13;3.10;;;;;18.50;100894.00;;;;5089643;28;20252;-82
2021/05/26 08:05:46;;;;;;;5.68;3.25;;;;;18.60;100896.00;;;;5072866;28;20207;-83
2021/05/26 08:08:13;;;;;;;6.45;4.13;;;;;18.60;100901.00;;;;5068672;28;20278;-83
2021/05/26 08:10:41;;;;;;;4.22;3.05;;;;;18.70;100895.00;;;;5081270;28;20803;-83
2021/05/26 08:13:09;;;;;;;5.22;3.75;;;;;18.80;100900.00;;;;5080987;28;20190;-83
2021/05/26 08:15:37;;;;;;;3.72;2.83;;;;;18.80;100896.00;;;;5087018;28;20666;-84
2021/05/26 08:18:04;;;;;;;7.78;3.70;;;;;18.90;100895.00;;;;5073212;28;20195;-84
2021/05/26 08:20:31;;;;;;;4.30;3.40;;;;;18.90;100880.00;;;;5086450;28;20221;-84
2021/05/26 08:22:57;;;;;;;4.40;3.08;;;;;19.10;100881.00;;;;5083200;28;20479;-84
2021/05/26 08:25:24;;;;;;;5.60;3.50;;;;;19.20;100876.00;;;;5077294;28;20639;-85
2021/05/26 08:27:51;;;;;;;6.35;3.85;;;;;19.40;100877.00;;;;5076565;28;20203;-84
2021/05/26 08:30:19;;;;;;;4.70;3.17;;;;;19.50;100871.00;;;;5074159;28;20211;-85
2021/05/26 08:32:46;;;;;;;6.85;3.47;;;;;19.60;100869.00;;;;5085611;28;20195;-84
2021/05/26 08:35:13;;;;;;;4.22;3.55;;;;;19.70;100868.00;;;;5075385;28;20223;-84
2021/05/26 08:37:40;;;;;;;3.28;2.95;;;;;19.80;100872.00;;;;5084337;28;20206;-84
2021/05/26 08:40:08;;;;;;;4.25;3.20;;;;;19.80;100868.00;;;;5074620;28;20234;-84
2021/05/26 08:42:35;;;;;;;4.25;3.22;;;;;19.90;100868.00;;;;5088204;28;20198;-83
2021/05/26 08:45:04;;;;;;;4.20;3.50;;;;;19.80;100864.00;;;;5086378;28;20190;-82
2021/05/26 08:47:34;;;;;;;3.70;2.88;;;;;19.90;100874.00;;;;5084801;28;20199;-84
2021/05/26 08:50:03;;;;;;;3.38;3.05;;;;;20.00;100870.00;;;;5074419;28;20201;-81
2021/05/26 08:52:30;;;;;;;4.57;3.47;;;;;20.00;100863.00;;;;5090213;28;20665;-85
2021/05/26 08:54:57;;;;;;;4.68;2.88;;;;;20.10;100870.00;;;;5087858;28;20202;-84
2021/05/26 08:57:23;;;;;;;5.70;2.80;;;;;20.20;100863.00;;;;5070785;28;20247;-84
2021/05/26 08:59:50;;;;;;;4.22;2.83;;;;;20.30;100861.00;;;;5075671;28;20223;-83
2021/05/26 09:02:17;;;;;;;3.00;2.53;;;;;20.40;100857.00;;;;5073166;28;20191;-84
2021/05/26 09:04:44;;;;;;;4.50;3.10;;;;;20.40;100857.00;;;;5086984;28;20567;-83
2021/05/26 09:07:14;;;;;;;4.57;2.72;;;;;20.40;100855.00;;;;5086921;28;20287;-83
2021/05/26 09:09:55;;;;;;;3.95;3.10;;;;;20.30;100858.00;;;;5084182;28;20358;-84
2021/05/26 09:12:27;;;;;;;4.78;3.20;;;;;20.30;100860.00;;;;5082899;28;20681;-83
2021/05/26 09:14:54;;;;;;;3.20;2.90;;;;;20.20;100885.00;;;;5073767;28;20187;-82
2021/05/26 09:17:21;;;;;;;1.75;1.63;;;;;20.10;100881.00;;;;5070014;28;20195;-81
2021/05/26 09:19:48;;;;;;;2.38;1.35;;;;;20.00;100883.00;;;;5084447;28;20219;-82
2021/05/26 09:22:18;;;;;;;2.20;1.25;;;;;19.80;100878.00;;;;5073854;28;20199;-81
2021/05/26 09:24:45;;;;;;;0.82;0.70;;;;;19.70;100878.00;;;;5082203;28;20230;-81
2021/05/26 09:27:13;;;;;;;1.08;0.57;;;;;19.50;100879.00;;;;5082069;28;20199;-81
2021/05/26 09:29:42;;;;;;;0.50;0.47;;;;;19.40;100886.00;;;;5071137;28;20257;-81
2021/05/26 09:32:20;;;;;;;1.88;1.00;;;;;19.10;100873.00;;;;5080332;28;20588;-81
2021/05/26 09:34:49;;;;;;;1.08;0.40;;;;;19.00;100874.00;;;;5080068;28;20657;-82
2021/05/26 09:37:21;;;;;;;1.00;0.47;;;;;18.90;100872.00;;;;5075269;28;20614;-82
2021/05/26 09:39:50;;;;;;;0.40;0.30;;;;;18.80;100864.00;;;;5080300;28;20307;-82
2021/05/26 09:42:32;;;;;;;1.35;0.60;;;;;18.50;100867.00;;;;5078176;28;20194;-81
2021/05/26 09:45:12;;;;;;;1.75;0.60;;;;;18.50;100864.00;;;;5089346;28;20194;-81
2021/05/26 09:47:40;;;;;;;1.05;0.55;;;;;18.40;100866.00;;;;5079927;28;20263;-81
2021/05/26 09:50:25;;;;;;;1.02;0.60;;;;;18.20;100872.00;;;;5089560;28;20200;-82
2021/05/26 09:52:55;;;;;;;1.52;0.65;;;;;18.20;100868.00;;;;5083977;28;20195;-81
2021/05/26 09:55:25;;;;;;;1.33;0.88;;;;;18.20;100863.00;;;;5078097;28;20195;-81
2021/05/26 09:57:53;;;;;;;2.05;0.90;;;;;18.10;100864.00;;;;5069604;28;20199;-81
2021/05/26 10:00:21;;;;;;;1.52;0.80;;;;;18.00;100860.00;;;;5084842;28;20313;-81
2021/05/26 10:02:48;;;;;;;1.45;0.88;;;;;18.00;100867.00;;;;5087882;28;20194;-82
2021/05/26 10:05:17;;;;;;;1.10;0.85;;;;;18.00;100860.00;;;;5090452;28;20202;-81
2021/05/26 10:07:44;;;;;;;1.58;0.63;;;;;18.00;100859.00;;;;5089319;28;20252;-82
2021/05/26 10:10:13;;;;;;;1.77;0.85;;;;;18.00;100858.00;;;;5088526;28;20226;-81
2021/05/26 10:12:41;;;;;;;2.17;0.88;;;;;18.10;100860.00;;;;5074467;28;20207;-82
2021/05/26 10:15:12;;;;;;;1.05;0.85;;;;;18.30;100855.00;;;;5088204;28;20202;-81
2021/05/26 10:17:41;;;;;;;1.75;0.93;;;;;18.40;100848.00;;;;5083580;28;20576;-81
2021/05/26 10:20:11;;;;;;;1.95;1.08;;;;;18.60;100857.00;;;;5069877;28;20233;-81
2021/05/26 10:22:39;;;;;;;1.60;1.02;;;;;18.90;100856.00;;;;5073135;28;20574;-82
2021/05/26 10:25:11;;;;;;;1.73;1.23;;;;;19.10;100845.00;;;;5077791;28;20191;-82
2021/05/26 10:27:44;;;;;;;2.22;1.15;;;;;19.30;100851.00;;;;5074748;28;20899;-82
2021/05/26 10:30:11;;;;;;;1.40;1.10;;;;;19.50;100857.00;;;;5079083;28;20206;-82
2021/05/26 10:32:59;;;;;;;2.42;1.20;;;;;19.50;100869.00;;;;5072428;28;20194;-83
2021/05/26 10:35:27;;;;;;;3.42;1.00;;;;;19.60;100870.00;;;;5068278;28;20245;-84
2021/05/26 10:38:04;;;;;;;2.08;1.20;;;;;19.60;100883.00;;;;5074504;28;20195;-83
2021/05/26 10:40:49;;;;;;;3.28;1.23;;;;;19.60;100882.00;;;;5072442;28;20589;-83
2021/05/26 10:43:33;;;;;;;1.58;0.85;;;;;19.40;100881.00;;;;5069236;28;20198;-83
2021/05/26 10:46:05;;;;;;;1.40;0.90;;;;;19.40;100877.00;;;;5072417;28;20191;-82
2021/05/26 10:49:12;;;;;;;1.00;0.70;;;;;19.30;100872.00;;;;5082520;28;20233;-82
2021/05/26 10:52:07;;;;;;;1.52;0.77;;;;;19.30;100874.00;;;;5075733;28;20281;-82
2021/05/26 10:55:02;;;;;;;2.08;0.88;;;;;19.40;100873.00;;;;5074888;28;20245;-82
2021/05/26 10:57:30;;;;;;;1.75;1.17;;;;;19.60;100876.00;;;;5074344;28;20563;-82
2021/05/26 11:00:25;;;;;;;0.80;0.80;;;;;19.60;100884.00;;;;5075969;28;20230;-83
2021/05/26 11:03:41;;;;;;;3.30;0.82;;;;;19.60;100882.00;;;;5069138;28;20336;-82
2021/05/26 11:06:37;;;;;;;1.38;0.95;;;;;19.60;100889.00;;;;5067670;28;20198;-82
2021/05/26 11:09:07;;;;;;;1.50;0.70;;;;;19.80;100885.00;;;;5060088;28;20230;-84
2021/05/26 11:11:41;;;;;;;1.50;0.80;;;;;19.80;100889.00;;;;5067942;28;20210;-84
2021/05/26 11:14:26;;;;;;;1.50;0.90;;;;;19.70;100889.00;;;;5079650;28;20289;-84
2021/05/26 11:17:21;;;;;;;1.13;1.02;;;;;19.70;100899.00;;;;5082075;28;20553;-83
2021/05/26 11:19:48;;;;;;;1.52;0.77;;;;;19.90;100910.00;;;;5059752;28;20230;-83
2021/05/26 11:22:16;;;;;;;1.25;0.80;;;;;19.90;100893.00;;;;5071554;28;20652;-84
2021/05/26 11:24:44;;;;;;;1.08;0.70;;;;;19.90;100891.00;;;;5071375;28;20247;-83
2021/05/26 11:27:16;;;;;;;0.88;0.88;;;;;20.00;100888.00;;;;5069315;28;20206;-84
2021/05/26 11:29:44;;;;;;;1.23;0.88;;;;;20.10;100899.00;;;;5068994;28;20322;-82
2021/05/26 11:32:13;;;;;;;2.03;0.77;;;;;20.10;100894.00;;;;5073731;28;20199;-82
2021/05/26 11:34:42;;;;;;;2.13;0.85;;;;;20.20;100888.00;;;;5073476;28;20210;-81
2021/05/26 11:37:10;;;;;;;0.80;0.70;;;;;20.20;100900.00;;;;5071857;28;20194;-81
2021/05/26 11:39:38;;;;;;;1.90;0.75;;;;;20.20;100901.00;;;;5077515;28;20211;-83
2021/05/26 11:42:09;;;;;;;0.73;0.57;;;;;20.10;100908.00;;;;5075418;28;20661;-82
2021/05/26 11:44:38;;;;;;;0.93;0.80;;;;;20.10;100903.00;;;;5085252;28;20259;-78
2021/05/26 11:47:06;;;;;;;0.55;0.50;;;;;20.10;100904.00;;;;5067588;28;20199;-78
2021/05/26 11:49:35;;;;;;;1.45;0.75;;;;;20.10;100905.00;;;;5067708;28;20599;-77
2021/05/26 11:52:04;;;;;;;0.70;0.70;;;;;20.10;100907.00;;;;5068019;28;20191;-78
2021/05/26 11:54:31;;;;;;;0.50;0.50;;;;;20.10;100900.00;;;;5071011;28;20646;-78
2021/05/26 11:57:03;;;;;;;1.25;0.55;;;;;20.00;100896.00;;;;5092047;28;20202;-77
2021/05/26 11:59:31;;;;;;;0.55;0.30;;;;;20.10;100901.00;;;;5086173;28;20257;-78
2021/05/26 12:01:59;;;;;;;2.05;0.40;;;;;20.10;100900.00;;;;5076422;28;20199;-76
2021/05/26 12:04:26;;;;;;;0.60;0.50;;;;;20.10;100915.00;;;;5083745;28;20198;-76
2021/05/26 12:06:55;;;;;;;1.23;0.50;;;;;20.10;100906.00;;;;5070233;28;20203;-78
2021/05/26 12:09:27;;;;;;;0.30;0.20;;;;;20.10;100904.00;;;;5080339;28;20232;-77
2021/05/26 12:11:54;;;;;;;0.82;0.40;;;;;20.20;100904.00;;;;5073413;28;20322;-77
2021/05/26 12:14:28;;;;;;;0.50;0.30;;;;;20.20;100912.00;;;;5078123;28;20224;-76
2021/05/26 12:16:55;;;;;;;0.73;0.40;;;;;20.30;100915.00;;;;5072220;28;20281;-77